createdAt,value
2018-02-27T00:01:53.098Z,4.00
2018-02-27T00:04:23.059Z,4.90
2018-02-27T00:06:52.919Z,4.70
2018-02-27T00:09:22.838Z,5.30
2018-02-27T00:11:52.738Z,5.40
2018-02-27T00:14:22.594Z,5.70
2018-02-27T00:16:52.657Z,6.13
2018-02-27T00:19:22.498Z,5.97
2018-02-27T00:21:52.428Z,6.67
2018-02-27T00:24:22.256Z,6.07
2018-02-27T00:26:52.180Z,6.27
2018-02-27T00:29:22.153Z,6.03
2018-02-27T00:31:52.201Z,5.63
2018-02-27T00:34:22.066Z,5.27
2018-02-27T00:36:51.942Z,6.33
2018-02-27T00:39:22.039Z,5.60
2018-02-27T00:41:51.989Z,6.40
2018-02-27T00:44:21.895Z,6.00
2018-02-27T00:46:51.767Z,6.27
2018-02-27T00:49:22.439Z,6.83
2018-02-27T00:51:52.287Z,7.07
2018-02-27T00:54:22.236Z,6.50
2018-02-27T00:56:52.109Z,6.53
2018-02-27T00:59:22.067Z,7.57
2018-02-27T01:17:07.710Z,6.07
2018-02-27T03:35:16.254Z,6.97
2018-02-27T03:37:46.273Z,6.60
2018-02-27T03:40:16.301Z,6.60
2018-02-27T03:42:46.952Z,7.00
2018-02-27T03:45:17.041Z,7.07
2018-02-27T03:47:47.046Z,7.20
2018-02-27T03:59:33.737Z,7.53
2018-02-27T04:02:03.731Z,6.80
2018-02-27T04:04:33.744Z,6.93
2018-02-27T04:07:03.725Z,7.10
2018-02-27T04:09:33.672Z,7.87
2018-02-27T04:12:03.631Z,5.93
2018-02-27T04:14:33.700Z,6.73
2018-02-27T04:17:03.675Z,6.00
2018-02-27T04:25:44.853Z,5.30
2018-02-27T04:28:14.881Z,5.70
2018-02-27T04:36:55.390Z,6.50
2018-02-27T04:39:25.452Z,7.90
2018-02-27T04:41:55.800Z,6.50
2018-02-27T04:44:25.786Z,4.73
2018-02-27T04:46:55.751Z,3.33
2018-02-27T04:49:25.906Z,4.97
2018-02-27T04:51:55.899Z,6.20
2018-02-27T04:54:26.104Z,4.00
2018-02-27T05:09:40.460Z,5.30
2018-02-27T05:33:17.390Z,4.27
2018-02-27T05:35:47.381Z,3.97
2018-02-27T05:38:17.481Z,3.57
2018-02-27T05:40:47.466Z,3.93
2018-02-27T05:43:17.399Z,4.70
2018-02-27T05:45:47.312Z,2.77
2018-02-27T05:48:17.207Z,4.37
2018-02-27T05:50:47.192Z,4.30
2018-02-27T05:53:18.086Z,3.27
2018-02-27T05:55:48.147Z,4.80
2018-02-27T05:58:18.138Z,3.67
2018-02-27T06:13:09.876Z,4.73
2018-02-27T06:15:40.115Z,3.30
2018-02-27T06:18:10.057Z,3.57
2018-02-27T06:21:01.937Z,3.50
2018-02-27T06:23:32.156Z,4.73
2018-02-27T06:26:02.146Z,3.10
2018-02-27T06:28:32.200Z,3.87
2018-02-27T06:33:58.424Z,3.40
2018-02-27T06:36:28.474Z,3.43
2018-02-27T06:38:58.509Z,4.07
2018-02-27T06:41:28.612Z,4.80
2018-02-27T06:43:58.618Z,3.43
2018-02-27T06:46:28.855Z,3.60
2018-02-27T06:48:58.831Z,3.73
2018-02-27T06:51:28.863Z,4.40
2018-02-27T06:53:58.838Z,3.10
2018-02-27T06:56:28.852Z,3.83
2018-02-27T06:58:58.887Z,4.53
2018-02-27T07:07:39.704Z,3.53
2018-02-27T07:10:09.894Z,2.97
2018-02-27T07:12:40.114Z,4.33
2018-02-27T07:15:12.215Z,2.80
2018-02-27T07:23:57.679Z,3.23
2018-02-27T07:26:27.716Z,3.30
2018-02-27T07:28:57.996Z,2.63
2018-02-27T07:31:28.111Z,3.10
2018-02-27T07:33:58.326Z,3.50
2018-02-27T07:36:28.283Z,3.93
2018-02-27T07:38:58.301Z,4.10
2018-02-27T07:44:34.396Z,2.70
2018-02-27T07:47:04.612Z,1.97
2018-02-27T07:55:45.237Z,3.20
2018-02-27T07:58:15.073Z,3.17
2018-02-27T08:00:45.035Z,3.13
2018-02-27T08:03:14.902Z,1.27
2018-02-27T08:05:45.019Z,2.80
2018-02-27T08:08:14.867Z,3.27
2018-02-27T08:10:45.649Z,4.40
2018-02-27T08:13:15.531Z,4.00
2018-02-27T08:15:45.467Z,2.57
2018-02-27T08:18:15.480Z,3.47
2018-02-27T08:20:45.473Z,3.20
2018-02-27T08:23:15.415Z,2.10
2018-02-27T08:25:45.336Z,3.20
2018-02-27T08:28:15.175Z,4.20
2018-02-27T08:30:45.066Z,2.70
2018-02-27T08:33:14.928Z,2.10
2018-02-27T08:35:44.862Z,3.63
2018-02-27T08:38:14.732Z,3.07
2018-02-27T08:40:44.738Z,2.83
2018-02-27T08:43:14.651Z,3.13
2018-02-27T08:45:44.618Z,3.57
2018-02-27T08:48:14.648Z,2.77
2018-02-27T08:50:44.505Z,1.93
2018-02-27T08:53:14.376Z,3.70
2018-02-27T08:55:44.325Z,3.20
2018-02-27T08:58:14.271Z,3.57
2018-02-27T09:00:44.687Z,1.90
2018-02-27T09:03:14.832Z,3.13
2018-02-27T09:05:44.725Z,3.13
2018-02-27T09:08:14.650Z,2.50
2018-02-27T09:10:44.666Z,2.10
2018-02-27T09:13:14.593Z,2.50
2018-02-27T09:15:44.436Z,2.20
2018-02-27T09:18:14.363Z,3.63
2018-02-27T09:20:44.225Z,1.83
2018-02-27T09:23:14.124Z,2.23
2018-02-27T09:25:43.993Z,1.83
2018-02-27T09:28:13.957Z,1.50
2018-02-27T09:30:43.823Z,1.50
2018-02-27T09:33:13.783Z,2.40
2018-02-27T09:35:43.675Z,2.27
2018-02-27T09:38:13.557Z,2.00
2018-02-27T09:40:43.503Z,2.20
2018-02-27T09:43:13.519Z,1.37
2018-02-27T09:45:43.557Z,2.50
2018-02-27T09:48:13.493Z,1.93
2018-02-27T09:50:43.472Z,2.10
2018-02-27T09:53:13.315Z,2.30
2018-02-27T09:55:43.176Z,1.50
2018-02-27T09:58:13.105Z,1.97
2018-02-27T10:00:42.992Z,2.20
2018-02-27T10:03:12.876Z,1.80
2018-02-27T10:05:43.070Z,1.87
2018-02-27T10:08:13.834Z,1.87
2018-02-27T10:10:43.872Z,2.10
2018-02-27T10:13:13.770Z,1.60
2018-02-27T10:15:43.778Z,1.70
2018-02-27T10:18:13.611Z,1.80
2018-02-27T10:20:43.538Z,1.80
2018-02-27T10:23:13.382Z,1.40
2018-02-27T10:25:43.342Z,1.80
2018-02-27T10:41:23.432Z,1.67
2018-02-27T10:43:53.314Z,1.50
2018-02-27T10:46:23.181Z,1.93
2018-02-27T10:48:53.137Z,1.10
2018-02-27T10:51:23.015Z,1.10
2018-02-27T10:53:52.905Z,1.63
2018-02-27T10:56:22.780Z,2.03
2018-02-27T10:58:52.645Z,1.30
2018-02-27T11:01:24.406Z,1.50
2018-02-27T11:03:54.276Z,1.83
2018-02-27T11:06:24.152Z,1.70
2018-02-27T11:08:54.069Z,1.57
2018-02-27T11:11:23.990Z,1.53
2018-02-27T11:13:54.018Z,1.00
2018-02-27T11:16:24.049Z,1.33
2018-02-27T11:18:53.938Z,1.77
2018-02-27T11:21:23.895Z,1.23
2018-02-27T11:23:54.240Z,0.87
2018-02-27T11:26:24.518Z,1.43
2018-02-27T11:28:54.369Z,1.53
2018-02-27T11:31:24.357Z,1.40
2018-02-27T11:33:54.261Z,1.83
2018-02-27T11:36:24.191Z,1.20
2018-02-27T11:38:54.071Z,1.13
2018-02-27T11:41:24.014Z,1.33
2018-02-27T11:43:53.874Z,1.43
2018-02-27T11:46:23.751Z,1.27
2018-02-27T11:48:53.786Z,1.67
2018-02-27T11:51:23.651Z,1.80
2018-02-27T11:53:53.561Z,1.53
2018-02-27T11:56:23.500Z,2.23
2018-02-27T11:58:53.425Z,1.17
2018-02-27T12:01:23.307Z,1.50
2018-02-27T12:03:53.268Z,2.87
2018-02-27T12:06:23.138Z,1.53
2018-02-27T12:08:53.109Z,1.60
2018-02-27T12:11:22.937Z,1.70
2018-02-27T12:13:52.936Z,1.87
2018-02-27T12:16:22.774Z,1.53
2018-02-27T12:18:52.678Z,1.30
2018-02-27T12:21:22.559Z,1.60
2018-02-27T12:23:52.733Z,1.87
2018-02-27T12:26:22.723Z,1.10
2018-02-27T12:28:52.609Z,1.07
2018-02-27T12:31:22.512Z,1.60
2018-02-27T12:33:52.366Z,1.87
2018-02-27T12:36:22.281Z,1.40
2018-02-27T12:38:52.204Z,1.70
2018-02-27T12:41:22.174Z,1.40
2018-02-27T12:43:52.120Z,1.83
2018-02-27T12:46:22.033Z,1.60
2018-02-27T12:48:51.909Z,1.80
2018-02-27T12:51:22.571Z,2.17
2018-02-27T12:53:52.539Z,1.50
2018-02-27T12:56:22.436Z,1.43
2018-02-27T12:58:52.307Z,1.50
2018-02-27T13:01:22.235Z,1.10
2018-02-27T13:03:52.286Z,0.80
2018-02-27T13:06:22.325Z,1.23
2018-02-27T13:08:52.195Z,1.20
2018-02-27T13:11:22.230Z,1.43
2018-02-27T13:13:52.100Z,1.30
2018-02-27T13:16:22.055Z,1.60
2018-02-27T13:18:51.942Z,1.50
2018-02-27T13:21:22.071Z,1.57
2018-02-27T13:23:51.981Z,1.47
2018-02-27T13:26:21.943Z,1.57
2018-02-27T13:28:51.848Z,1.53
2018-02-27T13:31:21.735Z,1.13
2018-02-27T13:33:51.604Z,1.30
2018-02-27T13:36:21.440Z,1.30
2018-02-27T13:38:52.124Z,1.67
2018-02-27T13:41:22.173Z,1.60
2018-02-27T13:43:52.984Z,1.10
2018-02-27T13:46:22.903Z,1.43
2018-02-27T13:48:52.920Z,1.63
2018-02-27T13:51:22.777Z,1.90
2018-02-27T13:53:52.682Z,1.80
2018-02-27T13:56:22.554Z,1.57
2018-02-27T13:58:52.395Z,1.97
2018-02-27T14:01:22.566Z,1.27
2018-02-27T14:03:52.541Z,1.20
2018-02-27T14:06:22.474Z,1.60
2018-02-27T14:08:52.346Z,2.47
2018-02-27T14:11:22.269Z,2.10
2018-02-27T14:13:52.162Z,2.40
2018-02-27T14:16:22.282Z,3.30
2018-02-27T14:18:52.204Z,1.90
2018-02-27T14:21:22.063Z,2.93
2018-02-27T14:23:52.200Z,3.20
2018-02-27T14:26:22.145Z,2.83
2018-02-27T14:28:52.094Z,1.70
2018-02-27T14:31:21.988Z,3.30
2018-02-27T14:33:51.878Z,3.23
2018-02-27T14:36:21.730Z,2.43
2018-02-27T14:38:51.673Z,2.90
2018-02-27T14:41:21.595Z,2.70
2018-02-27T14:43:51.477Z,3.20
2018-02-27T14:46:21.389Z,2.30
2018-02-27T14:48:51.322Z,1.93
2018-02-27T14:51:21.233Z,3.23
2018-02-27T14:53:51.150Z,2.83
2018-02-27T14:56:21.012Z,2.97
2018-02-27T14:58:51.078Z,3.40
2018-02-27T15:01:21.399Z,3.70
2018-02-27T15:03:51.407Z,4.20
2018-02-27T15:06:21.463Z,2.83
2018-02-27T15:08:51.442Z,2.77
2018-02-27T15:11:21.291Z,3.57
2018-02-27T15:13:51.217Z,4.10
2018-02-27T15:16:21.213Z,4.30
2018-02-27T15:18:51.136Z,3.83
2018-02-27T15:21:21.066Z,3.40
2018-02-27T15:23:50.999Z,3.23
2018-02-27T15:26:21.974Z,2.37
2018-02-27T15:28:52.310Z,2.60
2018-02-27T15:31:22.159Z,2.20
2018-02-27T15:33:52.074Z,3.40
2018-02-27T15:36:22.090Z,2.73
2018-02-27T15:38:51.995Z,2.30
2018-02-27T15:41:22.021Z,3.90
2018-02-27T15:43:51.981Z,2.30
2018-02-27T15:46:21.864Z,1.60
2018-02-27T15:48:51.828Z,1.00
2018-02-27T15:51:22.103Z,2.10
2018-02-27T15:53:52.206Z,1.20
2018-02-27T15:56:22.067Z,1.77
2018-02-27T15:58:51.985Z,1.60
2018-02-27T16:01:21.906Z,2.20
2018-02-27T16:03:52.014Z,2.00
2018-02-27T16:06:22.031Z,2.63
2018-02-27T16:08:51.944Z,1.50
2018-02-27T16:11:21.810Z,1.80
2018-02-27T16:13:51.772Z,1.60
2018-02-27T16:16:21.694Z,1.60
2018-02-27T16:18:51.508Z,2.20
2018-02-27T16:21:21.369Z,2.20
2018-02-27T16:23:51.238Z,2.23
2018-02-27T16:26:21.195Z,2.33
2018-02-27T16:28:51.121Z,2.10
2018-02-27T16:31:21.229Z,2.33
2018-02-27T16:33:51.166Z,2.20
2018-02-27T16:36:21.139Z,2.50
2018-02-27T16:38:51.042Z,2.70
2018-02-27T16:41:21.011Z,2.50
2018-02-27T16:43:51.090Z,3.13
2018-02-27T16:46:21.033Z,4.03
2018-02-27T16:48:50.892Z,3.70
2018-02-27T16:51:20.821Z,4.40
2018-02-27T16:53:50.710Z,5.53
2018-02-27T16:56:20.591Z,4.80
2018-02-27T16:58:50.544Z,5.73
2018-02-27T17:01:20.497Z,5.73
2018-02-27T17:03:50.374Z,4.60
2018-02-27T17:06:20.319Z,6.57
2018-02-27T17:08:50.585Z,5.03
2018-02-27T17:11:20.439Z,5.10
2018-02-27T17:13:50.721Z,6.00
2018-02-27T17:16:20.574Z,6.30
2018-02-27T17:18:50.784Z,7.37
2018-02-27T17:21:20.667Z,7.23
2018-02-27T17:23:50.544Z,6.70
2018-02-27T17:26:20.535Z,7.47
2018-02-27T17:28:50.486Z,7.10
2018-02-27T17:31:20.407Z,7.90
2018-02-27T17:33:50.261Z,7.93
2018-02-27T17:36:20.394Z,9.27
2018-02-27T17:38:50.417Z,5.93
2018-02-27T17:41:20.498Z,5.10
2018-02-27T17:43:50.529Z,7.40
2018-02-27T17:46:20.858Z,5.47
2018-02-27T17:48:51.088Z,7.27
2018-02-27T17:51:21.253Z,5.20
2018-02-27T17:53:51.174Z,7.20
2018-02-27T17:56:21.085Z,4.73
2018-02-27T17:58:50.977Z,7.50
2018-02-27T18:01:21.003Z,6.43
2018-02-27T18:03:51.065Z,6.50
2018-02-27T18:06:21.006Z,7.80
2018-02-27T18:08:50.966Z,6.30
2018-02-27T18:11:20.852Z,6.27
2018-02-27T18:13:50.808Z,7.30
2018-02-27T18:16:20.854Z,8.40
2018-02-27T18:18:50.828Z,7.00
2018-02-27T18:21:20.863Z,6.03
2018-02-27T18:23:50.821Z,7.93
2018-02-27T18:26:20.772Z,6.23
2018-02-27T18:28:50.654Z,6.93
2018-02-27T18:31:20.545Z,7.33
2018-02-27T18:33:50.456Z,10.87
2018-02-27T18:36:20.623Z,8.83
2018-02-27T18:38:50.596Z,7.53
2018-02-27T18:41:20.528Z,7.67
2018-02-27T18:43:50.501Z,8.40
2018-02-27T18:46:20.275Z,7.17
2018-02-27T18:48:51.037Z,5.93
2018-02-27T18:51:21.500Z,7.97
2018-02-27T18:53:51.387Z,7.00
2018-02-27T18:56:21.320Z,6.33
2018-02-27T18:58:51.451Z,7.07
2018-02-27T19:01:21.406Z,7.50
2018-02-27T19:03:51.760Z,8.50
2018-02-27T19:06:21.667Z,7.20
2018-02-27T19:08:51.847Z,8.27
2018-02-27T19:11:21.808Z,7.80
2018-02-27T19:13:51.728Z,7.43
2018-02-27T19:16:21.632Z,7.20
2018-02-27T19:18:51.864Z,5.47
2018-02-27T19:21:22.079Z,7.30
2018-02-27T19:23:51.980Z,6.73
2018-02-27T19:26:22.068Z,8.23
2018-02-27T19:28:52.127Z,7.73
2018-02-27T19:37:32.095Z,7.97
2018-02-27T19:40:02.025Z,7.47
2018-02-27T19:42:32.208Z,6.43
2018-02-27T19:45:02.316Z,6.77
2018-02-27T19:47:32.593Z,7.87
2018-02-27T19:50:03.367Z,6.70
2018-02-27T19:52:33.826Z,8.03
2018-02-27T19:55:03.858Z,5.83
2018-02-27T19:57:34.981Z,9.17
2018-02-27T20:00:05.207Z,4.67
2018-02-27T20:02:35.189Z,8.33
2018-02-27T20:05:05.592Z,8.07
2018-02-27T20:07:35.662Z,6.50
2018-02-27T20:10:05.595Z,8.63
2018-02-27T20:12:35.606Z,6.40
2018-02-27T20:15:05.848Z,8.00
2018-02-27T20:17:50.743Z,7.37
2018-02-27T20:32:42.173Z,7.87
2018-02-27T20:47:01.307Z,7.27
2018-02-27T20:49:45.458Z,7.57
2018-02-27T21:16:38.037Z,7.13
2018-02-27T21:19:08.016Z,4.03
2018-02-27T21:21:38.216Z,6.80
2018-02-27T21:24:08.087Z,6.23
2018-02-27T21:26:38.208Z,4.47
2018-02-27T21:29:08.189Z,5.30
2018-02-27T21:31:38.356Z,5.87
2018-02-27T21:34:08.279Z,4.47
2018-02-27T21:36:38.282Z,6.33
2018-02-27T21:39:08.163Z,5.20
2018-02-27T21:41:38.096Z,5.07
2018-02-27T21:44:07.955Z,6.23
2018-02-27T21:46:37.944Z,5.33
2018-02-27T21:49:07.887Z,6.13
2018-02-27T21:51:37.918Z,3.37
2018-02-27T21:54:07.955Z,2.97
2018-02-27T21:56:37.854Z,4.30
2018-02-27T21:59:07.706Z,4.13
2018-02-27T22:01:37.558Z,4.37
2018-02-27T22:04:07.434Z,3.33
2018-02-27T22:06:37.346Z,3.70
2018-02-27T22:09:07.254Z,4.40
2018-02-27T22:11:37.120Z,5.67
2018-02-27T22:14:07.018Z,4.57
2018-02-27T22:16:36.971Z,4.27
2018-02-27T22:19:06.849Z,4.07
2018-02-27T22:21:36.701Z,3.93
2018-02-27T22:24:06.570Z,3.87
2018-02-27T22:26:37.748Z,5.33
2018-02-27T22:29:07.758Z,3.83
2018-02-27T22:31:37.738Z,5.00
2018-02-27T22:34:07.607Z,3.67
2018-02-27T22:36:37.521Z,3.57
2018-02-27T22:39:08.148Z,3.47
2018-02-27T22:41:38.389Z,4.17
2018-02-27T22:44:08.226Z,3.10
2018-02-27T22:46:38.360Z,3.07
2018-02-27T22:49:08.213Z,3.30
2018-02-27T22:51:38.360Z,2.80
2018-02-27T22:54:09.399Z,4.17
2018-02-27T22:56:39.480Z,2.90
2018-02-27T22:59:09.350Z,3.97
2018-02-27T23:01:39.371Z,4.50
2018-02-27T23:04:09.330Z,3.37
2018-02-27T23:06:39.388Z,4.93
2018-02-27T23:09:09.471Z,4.07
2018-02-27T23:11:41.449Z,3.03
2018-02-27T23:16:52.167Z,4.23
2018-02-27T23:22:08.983Z,3.90
2018-02-27T23:24:56.852Z,2.90
2018-02-27T23:27:31.820Z,4.50
2018-02-27T23:30:09.942Z,2.87
2018-02-27T23:32:48.972Z,3.63
2018-02-27T23:35:31.598Z,4.40
2018-02-27T23:38:03.028Z,4.23
2018-02-27T23:40:33.137Z,3.53
2018-02-27T23:48:34.752Z,4.47
2018-02-27T23:51:17.311Z,4.70
2018-02-27T23:53:54.547Z,3.57
2018-02-27T23:59:06.667Z,4.47
